Time;durP1;ratioP1;P1;durP2;ratioP2;P2;SDS_P1;SDS_P2;PMS_P1;PMS_P2;Temp;Humidity;BMP_temperature;BMP_pressure;BME280_temperature;BME280_humidity;BME280_pressure;Samples;Min_cycle;Max_cycle;Signal;HPM_P1;HPM_P2
2022/04/17 00:01:33;;;;;;;2.90;2.53;;;4.20;96.00;;;;;;5011695;28;20705;-71
2022/04/17 00:03:59;;;;;;;5.30;1.70;;;4.10;96.10;;;;;;5012263;28;20701;-72
2022/04/17 00:06:24;;;;;;;1.60;1.50;;;4.10;96.30;;;;;;5012684;28;20184;-71
2022/04/17 00:08:50;;;;;;;3.13;2.50;;;4.10;96.60;;;;;;5015520;28;20653;-71
2022/04/17 00:11:16;;;;;;;3.10;2.30;;;4.10;96.80;;;;;;5015627;28;20215;-71
2022/04/17 00:13:45;;;;;;;2.87;1.53;;;4.10;97.00;;;;;;5015434;28;20215;-71
2022/04/17 00:16:11;;;;;;;2.23;1.53;;;4.10;97.30;;;;;;5015506;28;20503;-71
2022/04/17 00:18:37;;;;;;;2.87;2.13;;;4.00;97.40;;;;;;5014809;28;20454;-72
2022/04/17 00:21:03;;;;;;;1.33;1.23;;;4.00;97.50;;;;;;5006536;28;20339;-72
2022/04/17 00:23:29;;;;;;;2.50;2.17;;;4.10;97.60;;;;;;4995635;28;20539;-71
2022/04/17 00:25:55;;;;;;;2.50;2.30;;;4.10;97.80;;;;;;4995700;28;20447;-71
2022/04/17 00:28:20;;;;;;;1.50;1.40;;;4.00;97.80;;;;;;4995697;28;20329;-71
2022/04/17 00:30:46;;;;;;;1.90;1.60;;;4.00;98.10;;;;;;4995330;28;20196;-71
2022/04/17 00:33:11;;;;;;;1.37;1.30;;;4.00;98.40;;;;;;4995448;28;20177;-71
2022/04/17 00:35:38;;;;;;;2.03;1.33;;;4.00;98.80;;;;;;4995398;28;20175;-71
2022/04/17 00:38:04;;;;;;;1.60;1.50;;;3.90;99.20;;;;;;4995398;28;20181;-71
2022/04/17 00:40:30;;;;;;;2.60;1.70;;;3.90;99.50;;;;;;4995188;28;20816;-71
2022/04/17 00:42:58;;;;;;;1.77;1.67;;;3.90;99.90;;;;;;4995388;28;20415;-71
2022/04/17 00:45:23;;;;;;;3.70;1.43;;;3.80;99.90;;;;;;4995193;28;20224;-71
2022/04/17 00:47:49;;;;;;;2.33;2.13;;;3.80;99.90;;;;;;4995303;28;20918;-71
2022/04/17 00:50:14;;;;;;;1.80;1.70;;;3.80;99.90;;;;;;4995204;28;20605;-71
2022/04/17 00:52:40;;;;;;;2.10;1.30;;;3.70;99.90;;;;;;4994968;28;20169;-71
2022/04/17 00:55:07;;;;;;;2.30;1.60;;;3.80;99.90;;;;;;4995200;28;20173;-72
2022/04/17 00:57:33;;;;;;;2.67;2.30;;;3.70;99.90;;;;;;4995008;28;20173;-71
2022/04/17 00:59:59;;;;;;;2.00;1.70;;;3.80;99.90;;;;;;4994963;28;20519;-71
2022/04/17 01:02:24;;;;;;;2.80;2.33;;;3.80;99.90;;;;;;4995144;28;20408;-71
2022/04/17 01:04:50;;;;;;;1.63;1.53;;;3.80;99.90;;;;;;4994770;28;20255;-71
2022/04/17 01:07:15;;;;;;;2.93;1.70;;;3.80;99.90;;;;;;4994965;28;20231;-71
2022/04/17 01:09:43;;;;;;;1.60;1.50;;;3.80;99.90;;;;;;4994971;28;20185;-71
2022/04/17 01:12:10;;;;;;;1.40;1.30;;;3.70;99.90;;;;;;4993700;28;20173;-70
2022/04/17 01:14:39;;;;;;;2.23;2.03;;;3.70;99.90;;;;;;4994671;28;20418;-70
2022/04/17 01:17:06;;;;;;;2.10;1.30;;;3.80;99.90;;;;;;4994807;28;20785;-70
2022/04/17 01:19:33;;;;;;;1.60;1.50;;;3.70;99.90;;;;;;4993989;28;20412;-70
2022/04/17 01:21:58;;;;;;;2.80;1.37;;;3.70;99.90;;;;;;4994773;28;20416;-70
2022/04/17 01:27:09;;;;;;;1.37;1.27;;;3.60;99.90;;;;;;4994695;28;20682;-70
2022/04/17 01:29:39;;;;;;;1.73;1.47;;;3.60;99.90;;;;;;4994570;28;20792;-70
2022/04/17 01:32:07;;;;;;;2.30;1.90;;;3.60;99.90;;;;;;4994491;28;20408;-71
2022/04/17 01:34:32;;;;;;;3.13;1.97;;;3.60;99.90;;;;;;4994084;28;20510;-71
2022/04/17 01:36:59;;;;;;;1.60;1.50;;;3.50;99.90;;;;;;4994474;28;20483;-70
2022/04/17 01:39:24;;;;;;;2.40;1.97;;;3.50;99.90;;;;;;4994333;28;20207;-71
2022/04/17 01:41:51;;;;;;;2.33;2.13;;;3.50;99.90;;;;;;4993984;28;20938;-71
2022/04/17 01:44:17;;;;;;;2.23;1.80;;;3.50;99.90;;;;;;4994097;28;20555;-71
2022/04/17 01:46:44;;;;;;;3.47;2.13;;;3.50;99.90;;;;;;4994261;28;20399;-72
2022/04/17 01:49:10;;;;;;;1.60;1.50;;;3.50;99.90;;;;;;4994179;28;20462;-71
2022/04/17 01:51:38;;;;;;;1.93;1.47;;;3.60;99.90;;;;;;4994045;28;20456;-71
2022/04/17 01:54:11;;;;;;;1.30;1.20;;;3.50;99.90;;;;;;4994145;28;20809;-71
2022/04/17 01:56:39;;;;;;;2.13;1.93;;;3.50;99.90;;;;;;4993778;28;20447;-71
2022/04/17 01:59:06;;;;;;;2.70;1.97;;;3.50;99.90;;;;;;4994021;28;20412;-71
2022/04/17 02:01:35;;;;;;;1.70;1.60;;;3.40;99.90;;;;;;4993882;28;20430;-71
2022/04/17 02:04:03;;;;;;;2.00;1.50;;;3.40;99.90;;;;;;4994187;28;20804;-70
2022/04/17 02:06:28;;;;;;;1.57;1.33;;;3.40;99.90;;;;;;4993715;28;20471;-70
2022/04/17 02:08:55;;;;;;;2.37;1.57;;;3.30;99.90;;;;;;4993964;28;20412;-70
2022/04/17 02:11:22;;;;;;;1.53;1.43;;;3.30;99.90;;;;;;4993951;28;20563;-71
2022/04/17 02:13:51;;;;;;;1.97;1.87;;;3.30;99.90;;;;;;4993710;28;20407;-71
2022/04/17 02:16:17;;;;;;;5.07;2.20;;;3.30;99.90;;;;;;4993646;28;20404;-71
2022/04/17 02:18:47;;;;;;;2.00;1.90;;;3.30;99.90;;;;;;4994009;28;20414;-71
2022/04/17 02:21:13;;;;;;;2.50;1.60;;;3.30;99.90;;;;;;4993503;28;20443;-71
2022/04/17 02:23:42;;;;;;;1.80;1.50;;;3.30;99.90;;;;;;4993295;28;20462;-71
2022/04/17 02:26:09;;;;;;;2.13;2.00;;;3.30;99.90;;;;;;4993312;28;20939;-71
2022/04/17 02:28:36;;;;;;;1.97;1.87;;;3.20;99.90;;;;;;4993456;28;20400;-71
2022/04/17 02:31:03;;;;;;;3.07;1.80;;;3.20;99.90;;;;;;4992684;28;20486;-71
2022/04/17 02:33:29;;;;;;;1.53;1.43;;;3.20;99.90;;;;;;4992049;28;20405;-71
2022/04/17 02:35:54;;;;;;;2.30;2.10;;;3.20;99.90;;;;;;4993126;28;20435;-71
2022/04/17 02:38:20;;;;;;;2.20;2.10;;;3.20;99.90;;;;;;4993499;28;20188;-71
2022/04/17 02:40:46;;;;;;;1.73;1.40;;;3.20;99.90;;;;;;4993130;28;20212;-71
2022/04/17 02:43:11;;;;;;;2.17;1.93;;;3.10;99.90;;;;;;4993290;28;20630;-71
2022/04/17 02:45:37;;;;;;;2.37;1.83;;;3.10;99.90;;;;;;4993242;28;20672;-71
2022/04/17 02:48:03;;;;;;;2.13;1.93;;;3.00;99.90;;;;;;4992928;28;20172;-71
2022/04/17 02:50:29;;;;;;;4.30;3.90;;;3.10;99.90;;;;;;4992972;28;20189;-71
2022/04/17 02:52:57;;;;;;;2.57;2.20;;;3.20;99.90;;;;;;4993016;28;20420;-71
2022/04/17 02:55:23;;;;;;;3.97;1.60;;;3.20;99.90;;;;;;4992879;28;20203;-71
2022/04/17 02:57:48;;;;;;;2.30;2.20;;;3.10;99.90;;;;;;4992876;28;20436;-71
2022/04/17 03:00:15;;;;;;;1.90;1.80;;;3.10;99.90;;;;;;4992958;28;20200;-71
2022/04/17 03:05:38;;;;;;;4.23;2.00;;;3.00;99.90;;;;;;4992774;28;20555;-71
2022/04/17 03:08:15;;;;;;;2.53;2.43;;;2.90;99.90;;;;;;4992836;28;20902;-71
2022/04/17 03:10:43;;;;;;;2.10;1.60;;;2.90;99.90;;;;;;4992880;28;20618;-71
2022/04/17 03:13:09;;;;;;;3.27;2.17;;;2.80;99.90;;;;;;4992838;28;20435;-71
2022/04/17 03:15:37;;;;;;;3.00;2.70;;;2.80;99.90;;;;;;4992528;28;20929;-70
2022/04/17 03:18:04;;;;;;;7.40;2.33;;;2.80;99.90;;;;;;4992688;28;20420;-71
2022/04/17 03:20:30;;;;;;;2.93;2.43;;;2.80;99.90;;;;;;4992641;28;20547;-71
2022/04/17 03:22:56;;;;;;;2.33;1.90;;;2.70;99.90;;;;;;4992507;28;20472;-70
2022/04/17 03:25:21;;;;;;;2.43;1.40;;;2.70;99.90;;;;;;4992297;28;20192;-71
2022/04/17 03:27:47;;;;;;;4.50;3.53;;;2.70;99.90;;;;;;4992453;28;20459;-71
2022/04/17 03:30:15;;;;;;;1.93;1.83;;;2.70;99.90;;;;;;4992835;28;20223;-70
2022/04/17 03:32:42;;;;;;;1.80;1.70;;;2.70;99.90;;;;;;4992537;28;20929;-71
2022/04/17 03:35:08;;;;;;;1.57;1.47;;;2.70;99.90;;;;;;4992345;28;20435;-70
2022/04/17 03:37:33;;;;;;;2.33;2.17;;;2.70;99.90;;;;;;4992285;28;20423;-70
2022/04/17 03:40:00;;;;;;;1.90;1.77;;;2.70;99.90;;;;;;4992206;28;20452;-70
2022/04/17 03:42:25;;;;;;;2.53;2.00;;;2.70;99.90;;;;;;5051786;23;20489;-68
2022/04/17 03:44:50;;;;;;;2.50;2.30;;;2.70;99.90;;;;;;5035916;28;20199;-69
2022/04/17 03:47:16;;;;;;;4.37;2.20;;;2.70;99.90;;;;;;5036225;28;20570;-69
2022/04/17 03:49:43;;;;;;;2.30;1.53;;;2.70;99.90;;;;;;5036144;28;20167;-69
2022/04/17 03:52:08;;;;;;;2.60;2.00;;;2.70;99.90;;;;;;5036049;28;20195;-69
2022/04/17 03:54:34;;;;;;;4.83;2.90;;;2.60;99.90;;;;;;5036114;28;20790;-69
2022/04/17 03:57:00;;;;;;;2.60;2.40;;;2.60;99.90;;;;;;5036309;28;20638;-69
2022/04/17 03:59:25;;;;;;;1.70;1.60;;;2.60;99.90;;;;;;5037231;28;20401;-69
2022/04/17 04:01:51;;;;;;;2.57;2.37;;;2.60;99.90;;;;;;5037523;28;20199;-68
2022/04/17 04:04:16;;;;;;;2.30;2.10;;;2.60;99.90;;;;;;5035733;28;20642;-68
2022/04/17 04:06:42;;;;;;;2.00;1.70;;;2.70;99.90;;;;;;5035663;28;20235;-68
2022/04/17 04:09:08;;;;;;;3.10;2.50;;;2.70;99.90;;;;;;5035703;28;20168;-68
2022/04/17 04:11:33;;;;;;;2.50;2.30;;;2.70;99.90;;;;;;5035593;28;20195;-68
2022/04/17 04:13:59;;;;;;;2.20;2.10;;;2.70;99.90;;;;;;5035458;28;20536;-68
2022/04/17 04:16:25;;;;;;;2.10;1.93;;;2.70;99.90;;;;;;5035889;28;20176;-68
2022/04/17 04:18:50;;;;;;;3.70;3.40;;;2.70;99.90;;;;;;5032996;28;20179;-68
2022/04/17 04:21:16;;;;;;;1.90;1.80;;;2.70;99.90;;;;;;5036042;28;20196;-68
2022/04/17 04:23:41;;;;;;;2.33;2.13;;;2.80;99.90;;;;;;5036543;28;20225;-69
2022/04/17 04:26:07;;;;;;;1.90;1.80;;;2.80;99.90;;;;;;5035781;28;20286;-68
2022/04/17 04:28:33;;;;;;;2.40;2.03;;;2.80;99.90;;;;;;5034056;28;20175;-68
2022/04/17 04:31:07;;;;;;;1.50;1.37;;;2.90;99.90;;;;;;5035118;28;20437;-69
2022/04/17 04:33:37;;;;;;;2.10;1.90;;;2.90;99.90;;;;;;5035313;28;20402;-69
2022/04/17 04:36:04;;;;;;;3.57;2.47;;;3.10;99.90;;;;;;5035150;28;20461;-68
2022/04/17 04:38:30;;;;;;;4.20;2.90;;;3.20;99.90;;;;;;5035771;28;20413;-68
2022/04/17 04:40:56;;;;;;;3.20;1.97;;;3.20;99.90;;;;;;5033824;28;20450;-68
2022/04/17 04:43:22;;;;;;;2.73;2.37;;;3.30;99.90;;;;;;5035205;28;20457;-69
2022/04/17 04:51:29;;;;;;;2.10;1.97;;;3.50;99.90;;;;;;5036301;28;20418;-68
2022/04/17 04:53:56;;;;;;;3.47;2.90;;;3.60;99.90;;;;;;5034098;28;20502;-68
2022/04/17 04:56:23;;;;;;;2.50;2.30;;;3.60;99.90;;;;;;5039153;28;20913;-69
2022/04/17 04:58:48;;;;;;;1.77;1.67;;;3.60;99.90;;;;;;5036370;28;20414;-69
2022/04/17 05:01:14;;;;;;;4.33;2.90;;;3.60;99.90;;;;;;5034966;28;20426;-69
2022/04/17 05:03:41;;;;;;;2.23;2.03;;;3.70;99.90;;;;;;5034926;28;20527;-69
2022/04/17 05:06:07;;;;;;;4.17;2.13;;;3.80;99.90;;;;;;5034800;28;20286;-70
2022/04/17 05:08:33;;;;;;;2.37;2.00;;;3.80;99.90;;;;;;5035078;28;20445;-69
2022/04/17 05:10:59;;;;;;;5.73;2.63;;;3.80;99.90;;;;;;5035043;28;20445;-68
2022/04/17 05:13:24;;;;;;;3.53;2.60;;;3.90;99.90;;;;;;5036287;28;20881;-70
2022/04/17 05:15:50;;;;;;;2.47;1.90;;;4.00;99.90;;;;;;5037197;28;20226;-69
2022/04/17 05:18:15;;;;;;;1.83;1.73;;;4.10;99.90;;;;;;5041011;28;20179;-69
2022/04/17 05:20:41;;;;;;;2.80;2.60;;;4.10;99.90;;;;;;5040760;28;20712;-69
2022/04/17 05:23:18;;;;;;;2.17;1.97;;;4.30;99.90;;;;;;5040867;28;20214;-69
2022/04/17 05:25:47;;;;;;;3.13;2.40;;;4.40;99.90;;;;;;5039716;28;20266;-69
2022/04/17 05:28:13;;;;;;;4.00;2.60;;;4.50;99.90;;;;;;5041166;28;20415;-69
2022/04/17 05:30:40;;;;;;;2.47;2.13;;;4.60;99.90;;;;;;5036070;28;20454;-69
2022/04/17 05:33:06;;;;;;;2.20;2.10;;;4.70;99.90;;;;;;5042711;28;20489;-68
2022/04/17 05:35:31;;;;;;;3.30;3.00;;;4.90;99.90;;;;;;5040305;28;20406;-69
2022/04/17 05:37:57;;;;;;;2.90;2.67;;;5.00;99.90;;;;;;5038775;28;20417;-71
2022/04/17 05:40:22;;;;;;;2.00;1.90;;;5.20;99.90;;;;;;5038278;28;20211;-70
2022/04/17 05:42:48;;;;;;;2.13;1.93;;;5.30;99.90;;;;;;5037312;28;20242;-70
2022/04/17 05:45:13;;;;;;;4.57;2.83;;;5.40;99.90;;;;;;5036802;28;20259;-69
2022/04/17 05:47:39;;;;;;;3.70;2.40;;;5.80;99.90;;;;;;5035631;28;20258;-69
2022/04/17 05:50:05;;;;;;;2.40;1.87;;;6.00;99.90;;;;;;5034925;28;20229;-69
2022/04/17 05:52:30;;;;;;;2.03;1.80;;;6.30;99.90;;;;;;5036138;28;20677;-71
2022/04/17 05:54:57;;;;;;;2.13;1.93;;;6.80;99.90;;;;;;5033310;28;20502;-69
2022/04/17 05:57:23;;;;;;;2.50;2.07;;;7.00;99.90;;;;;;5033347;28;20180;-68
2022/04/17 05:59:48;;;;;;;2.13;1.93;;;7.10;99.90;;;;;;5033848;28;20407;-70
2022/04/17 06:02:15;;;;;;;3.17;2.30;;;7.40;99.90;;;;;;5034681;28;20600;-69
2022/04/17 06:04:42;;;;;;;3.40;1.83;;;7.80;99.90;;;;;;5039028;28;20853;-69
2022/04/17 06:07:08;;;;;;;5.43;2.73;;;8.50;99.90;;;;;;5035657;28;20398;-69
2022/04/17 06:09:35;;;;;;;2.80;2.53;;;8.60;99.90;;;;;;5044916;28;20406;-69
2022/04/17 06:12:00;;;;;;;2.27;2.07;;;8.60;99.90;;;;;;5036799;28;20876;-69
2022/04/17 06:14:26;;;;;;;2.53;2.27;;;8.50;99.50;;;;;;5034309;28;20468;-69
2022/04/17 06:16:52;;;;;;;1.43;1.33;;;9.50;99.60;;;;;;5034362;28;20183;-69
2022/04/17 06:19:17;;;;;;;1.97;1.77;;;10.00;97.50;;;;;;5035400;28;20172;-68
2022/04/17 06:21:43;;;;;;;3.03;2.80;;;10.60;95.90;;;;;;5037430;28;20207;-69
2022/04/17 06:24:09;;;;;;;2.47;2.27;;;11.10;94.80;;;;;;5033013;28;20175;-68
2022/04/17 06:26:35;;;;;;;3.73;2.43;;;10.60;93.30;;;;;;5037583;28;20195;-68
2022/04/17 06:29:08;;;;;;;2.87;2.60;;;10.70;92.90;;;;;;5037771;28;20196;-68
2022/04/17 06:31:34;;;;;;;3.47;2.23;;;11.00;93.00;;;;;;5040242;28;20522;-68
2022/04/17 06:34:01;;;;;;;2.10;2.00;;;10.90;91.00;;;;;;5047181;28;20528;-69
2022/04/17 06:36:27;;;;;;;3.03;2.07;;;10.90;90.70;;;;;;5037831;28;20413;-69
2022/04/17 06:38:52;;;;;;;1.90;1.80;;;11.30;90.80;;;;;;5045714;28;20407;-69
2022/04/17 06:41:18;;;;;;;2.07;1.53;;;12.10;90.10;;;;;;5042879;28;20220;-69
2022/04/17 06:43:44;;;;;;;2.27;1.83;;;12.90;87.40;;;;;;5038391;28;20206;-69
2022/04/17 06:46:09;;;;;;;2.47;1.97;;;13.70;85.00;;;;;;5034889;28;20195;-68
2022/04/17 06:48:37;;;;;;;2.93;2.63;;;13.90;80.20;;;;;;5032820;28;20171;-68
2022/04/17 06:51:03;;;;;;;2.30;1.93;;;14.20;79.50;;;;;;5044057;28;20193;-68
2022/04/17 06:53:28;;;;;;;3.03;1.80;;;13.50;79.20;;;;;;5034832;28;20408;-69
2022/04/17 06:55:54;;;;;;;2.30;2.03;;;13.80;76.20;;;;;;5035810;28;20166;-68
2022/04/17 06:58:20;;;;;;;2.73;1.97;;;13.50;78.70;;;;;;5034997;28;20200;-68
2022/04/17 07:00:46;;;;;;;2.27;1.80;;;13.90;75.90;;;;;;5038577;28;20617;-69
2022/04/17 07:03:15;;;;;;;2.30;1.57;;;13.30;77.00;;;;;;5036584;28;20413;-68
2022/04/17 07:05:41;;;;;;;1.80;1.70;;;13.90;74.80;;;;;;5043415;28;20467;-69
2022/04/17 07:08:07;;;;;;;2.17;1.97;;;14.70;72.60;;;;;;5036648;28;20415;-68
2022/04/17 07:10:37;;;;;;;2.47;1.70;;;14.60;71.20;;;;;;5033847;28;20414;-68
2022/04/17 07:13:04;;;;;;;2.17;1.70;;;14.50;73.00;;;;;;5034805;28;20414;-68
2022/04/17 07:15:29;;;;;;;1.73;1.63;;;16.00;68.50;;;;;;5041380;28;20407;-68
2022/04/17 07:17:55;;;;;;;3.20;1.30;;;15.30;68.10;;;;;;5044960;28;20410;-69
2022/04/17 07:20:21;;;;;;;1.43;1.20;;;16.00;64.90;;;;;;5035367;28;20182;-69
2022/04/17 07:22:47;;;;;;;1.10;1.10;;;15.60;64.20;;;;;;5036184;28;20420;-69
2022/04/17 07:25:13;;;;;;;2.40;1.30;;;15.70;65.70;;;;;;5037399;28;20484;-68
2022/04/17 07:27:43;;;;;;;1.27;1.10;;;15.90;65.20;;;;;;5031776;28;20195;-69
2022/04/17 07:30:20;;;;;;;1.23;1.10;;;16.00;64.50;;;;;;5034236;28;20434;-69
2022/04/17 07:32:50;;;;;;;0.90;0.87;;;16.50;63.10;;;;;;5033615;28;20413;-69
2022/04/17 07:35:18;;;;;;;1.53;1.10;;;16.50;62.70;;;;;;5035107;28;20406;-69
2022/04/17 07:37:51;;;;;;;1.40;1.20;;;17.10;58.60;;;;;;5033444;28;20985;-69
2022/04/17 07:40:25;;;;;;;1.50;1.40;;;16.80;59.60;;;;;;5032901;28;20418;-69
2022/04/17 07:42:51;;;;;;;1.60;1.50;;;16.80;59.30;;;;;;5037163;28;20448;-68
2022/04/17 07:45:18;;;;;;;1.83;1.50;;;17.60;58.90;;;;;;5039367;28;20538;-69
2022/04/17 07:47:44;;;;;;;2.70;1.40;;;17.40;58.20;;;;;;5034104;28;20774;-69
2022/04/17 07:50:13;;;;;;;1.43;1.33;;;17.10;58.40;;;;;;5038425;28;20802;-69
2022/04/17 07:52:39;;;;;;;1.60;1.47;;;17.20;58.30;;;;;;5033757;28;20513;-69
2022/04/17 07:55:06;;;;;;;1.40;1.30;;;16.70;61.90;;;;;;5037016;28;20801;-69
2022/04/17 08:00:19;;;;;;;2.37;1.37;;;16.50;56.70;;;;;;5039446;28;20480;-68
2022/04/17 08:02:50;;;;;;;2.80;1.57;;;16.30;58.00;;;;;;5034427;28;20424;-69
2022/04/17 08:05:16;;;;;;;1.97;1.80;;;16.90;58.50;;;;;;5034092;28;20446;-68
2022/04/17 08:07:42;;;;;;;1.70;1.60;;;15.90;57.70;;;;;;5037508;28;21138;-69
2022/04/17 08:10:08;;;;;;;1.03;0.93;;;16.20;58.40;;;;;;5044879;28;20436;-68
2022/04/17 08:12:34;;;;;;;1.40;1.23;;;16.70;58.00;;;;;;5036769;28;20190;-68
2022/04/17 08:15:00;;;;;;;2.30;1.57;;;16.70;57.00;;;;;;5034025;28;20931;-69
2022/04/17 08:17:26;;;;;;;1.93;1.77;;;16.30;57.10;;;;;;5033608;28;20426;-72
2022/04/17 08:19:51;;;;;;;2.30;1.50;;;17.30;57.10;;;;;;5033254;28;20408;-72
2022/04/17 08:22:17;;;;;;;1.90;1.43;;;17.10;56.90;;;;;;5032345;28;20213;-69
2022/04/17 08:24:43;;;;;;;2.33;1.50;;;17.50;57.50;;;;;;5033624;28;20211;-69
2022/04/17 08:27:10;;;;;;;2.23;1.33;;;16.50;56.80;;;;;;5033461;28;20170;-68
2022/04/17 08:29:35;;;;;;;1.73;1.40;;;17.20;56.90;;;;;;5035841;28;20493;-69
2022/04/17 08:32:01;;;;;;;2.13;1.80;;;16.70;56.20;;;;;;5034960;28;20454;-70
2022/04/17 08:34:26;;;;;;;2.27;1.50;;;16.10;56.60;;;;;;5034925;28;20178;-69
2022/04/17 08:36:52;;;;;;;2.13;1.93;;;15.90;57.70;;;;;;5035031;28;20172;-68
2022/04/17 08:39:17;;;;;;;1.90;1.50;;;16.40;58.80;;;;;;5035150;28;20254;-69
2022/04/17 08:41:45;;;;;;;1.90;1.57;;;17.70;56.90;;;;;;5034392;28;20209;-69
2022/04/17 08:44:11;;;;;;;3.40;1.97;;;18.70;56.10;;;;;;5034875;28;20185;-69
2022/04/17 08:46:36;;;;;;;1.63;1.53;;;17.60;55.80;;;;;;5033449;28;20783;-70
2022/04/17 08:49:02;;;;;;;2.43;1.40;;;17.50;56.10;;;;;;5034839;28;20197;-68
2022/04/17 08:51:30;;;;;;;2.23;1.60;;;17.80;56.20;;;;;;5034787;28;20202;-69
2022/04/17 08:53:58;;;;;;;2.00;1.67;;;17.20;57.80;;;;;;5034738;28;20463;-69
2022/04/17 08:56:24;;;;;;;1.70;1.43;;;17.10;57.80;;;;;;5034572;28;20953;-68
2022/04/17 08:58:49;;;;;;;2.43;1.83;;;18.30;56.50;;;;;;5034717;28;20496;-69
2022/04/17 09:01:18;;;;;;;2.73;2.10;;;18.70;56.10;;;;;;5034344;28;20298;-68
2022/04/17 09:03:47;;;;;;;2.03;1.83;;;18.60;55.60;;;;;;5033066;28;20262;-69
2022/04/17 09:06:17;;;;;;;2.53;1.77;;;17.70;56.30;;;;;;5034478;28;20825;-69
2022/04/17 09:08:56;;;;;;;2.37;1.77;;;17.60;58.70;;;;;;5034649;28;20499;-69
2022/04/17 09:11:25;;;;;;;3.03;1.50;;;17.30;56.30;;;;;;5034333;28;20478;-69
2022/04/17 09:13:54;;;;;;;2.67;2.20;;;18.10;55.70;;;;;;5034304;28;20416;-70
2022/04/17 09:16:26;;;;;;;2.33;1.70;;;18.60;54.50;;;;;;5034183;28;20437;-70
2022/04/17 09:18:51;;;;;;;1.60;1.33;;;18.60;54.20;;;;;;5034593;28;20412;-69
2022/04/17 09:21:33;;;;;;;3.20;1.70;;;17.80;54.20;;;;;;5034254;28;20436;-68
2022/04/17 09:24:19;;;;;;;1.77;1.50;;;18.40;55.10;;;;;;5034447;28;20175;-70
2022/04/17 09:26:58;;;;;;;2.00;1.67;;;17.80;56.00;;;;;;5034078;28;20422;-69
2022/04/17 09:29:25;;;;;;;1.80;1.33;;;17.70;54.60;;;;;;5014658;28;20931;-69
2022/04/17 09:32:07;;;;;;;1.80;1.47;;;18.20;53.90;;;;;;5014376;28;20464;-68
2022/04/17 09:34:49;;;;;;;1.53;1.40;;;17.70;54.90;;;;;;5014243;28;20912;-69
2022/04/17 09:37:17;;;;;;;2.60;1.70;;;17.80;54.50;;;;;;5014489;28;20412;-69
2022/04/17 09:39:43;;;;;;;1.73;1.63;;;17.20;54.30;;;;;;5014029;28;20399;-70
2022/04/17 09:42:09;;;;;;;2.30;1.80;;;17.10;55.50;;;;;;5066762;23;20493;-71
2022/04/17 09:44:36;;;;;;;2.13;1.30;;;17.10;55.70;;;;;;5053128;28;20551;-70
2022/04/17 09:47:09;;;;;;;2.30;1.70;;;16.60;54.80;;;;;;5053444;28;20575;-70
2022/04/17 09:50:00;;;;;;;3.40;1.70;;;16.90;55.20;;;;;;5053381;28;20458;-70
2022/04/17 09:52:28;;;;;;;1.60;1.00;;;16.80;55.40;;;;;;5061030;28;20864;-71
2022/04/17 09:54:54;;;;;;;2.63;1.40;;;16.90;54.80;;;;;;5073473;28;20413;-70
2022/04/17 09:57:31;;;;;;;2.10;1.60;;;16.30;55.70;;;;;;5073609;28;20411;-70
2022/04/17 10:00:18;;;;;;;1.30;1.20;;;16.10;56.10;;;;;;5073658;28;20597;-70
2022/04/17 10:02:47;;;;;;;1.90;1.70;;;16.30;56.80;;;;;;5081886;28;20500;-70
2022/04/17 10:05:16;;;;;;;2.57;1.30;;;15.60;56.10;;;;;;5081922;28;20460;-70
2022/04/17 10:07:46;;;;;;;2.20;1.73;;;15.30;57.20;;;;;;5078610;28;20407;-71
2022/04/17 10:10:13;;;;;;;3.53;1.43;;;15.20;57.70;;;;;;5073171;28;20489;-70
2022/04/17 10:12:40;;;;;;;1.93;1.13;;;15.40;59.00;;;;;;5072945;28;20426;-69
2022/04/17 10:15:07;;;;;;;2.20;1.60;;;15.40;58.00;;;;;;5073010;28;20406;-70
2022/04/17 10:17:34;;;;;;;2.53;1.57;;;15.40;58.70;;;;;;5073124;28;20726;-70
2022/04/17 10:20:06;;;;;;;1.20;1.07;;;15.50;58.40;;;;;;5073111;28;20772;-71
2022/04/17 10:22:33;;;;;;;2.17;1.40;;;14.80;59.10;;;;;;5073382;28;20437;-70
2022/04/17 10:24:59;;;;;;;2.53;1.60;;;15.00;59.60;;;;;;5072512;28;20455;-71
2022/04/17 10:27:29;;;;;;;2.17;1.30;;;15.10;62.30;;;;;;5072488;28;20408;-71
2022/04/17 10:30:08;;;;;;;5.80;3.53;;;14.50;58.50;;;;;;5071986;28;20431;-71
2022/04/17 10:32:34;;;;;;;4.50;3.90;;;14.60;59.40;;;;;;5072600;28;20903;-71
2022/04/17 10:35:34;;;;;;;28.67;14.53;;;14.60;59.90;;;;;;5072547;28;20401;-71
2022/04/17 10:38:23;;;;;;;2.70;1.90;;;14.80;61.50;;;;;;5076937;28;20621;-72
2022/04/17 10:41:04;;;;;;;2.40;1.77;;;14.60;59.10;;;;;;5073304;28;20445;-71
2022/04/17 10:43:56;;;;;;;2.63;1.60;;;14.60;59.70;;;;;;5073226;28;20497;-71
2022/04/17 10:46:22;;;;;;;1.70;1.60;;;14.20;58.30;;;;;;5064513;28;20551;-72
2022/04/17 10:48:52;;;;;;;1.90;1.63;;;14.10;58.80;;;;;;5073878;28;20440;-72
2022/04/17 10:51:24;;;;;;;1.77;1.40;;;14.20;59.00;;;;;;5072791;28;20404;-71
2022/04/17 10:53:52;;;;;;;5.97;3.17;;;14.20;60.40;;;;;;5073605;28;20412;-71
2022/04/17 10:56:19;;;;;;;6.70;3.13;;;14.20;60.80;;;;;;5066381;28;20425;-71
2022/04/17 10:58:53;;;;;;;17.50;10.80;;;14.50;62.60;;;;;;5052816;28;21007;-72
2022/04/17 11:01:41;;;;;;;3.30;1.73;;;15.00;65.90;;;;;;5053009;28;20413;-71
2022/04/17 11:04:25;;;;;;;1.80;1.30;;;14.80;59.90;;;;;;5052593;28;20401;-71
2022/04/17 11:07:06;;;;;;;2.30;1.30;;;14.50;58.60;;;;;;5052767;28;20413;-71
2022/04/17 11:09:39;;;;;;;3.37;2.10;;;14.30;59.70;;;;;;5052090;28;20447;-71
2022/04/17 11:12:17;;;;;;;1.30;1.10;;;14.30;59.10;;;;;;5051170;28;20426;-71
2022/04/17 11:14:54;;;;;;;1.50;1.33;;;14.00;57.90;;;;;;5050121;28;20408;-72
2022/04/17 11:17:21;;;;;;;1.17;1.00;;;14.10;58.50;;;;;;5061932;28;20444;-71
2022/04/17 11:19:48;;;;;;;2.30;1.20;;;14.30;56.40;;;;;;5072534;28;20403;-71
2022/04/17 11:22:16;;;;;;;1.23;1.10;;;14.50;55.70;;;;;;5071934;28;20447;-71
2022/04/17 11:24:57;;;;;;;2.67;1.57;;;14.60;56.00;;;;;;5052974;28;20479;-71
2022/04/17 11:27:31;;;;;;;1.47;1.17;;;14.80;56.70;;;;;;5057201;28;20499;-71
2022/04/17 11:29:58;;;;;;;1.70;1.37;;;14.60;54.90;;;;;;5071493;28;20408;-71
2022/04/17 11:32:27;;;;;;;1.90;1.60;;;15.00;54.70;;;;;;5071628;28;20954;-71
2022/04/17 11:34:53;;;;;;;1.03;0.90;;;15.10;53.10;;;;;;5071122;28;20412;-71
2022/04/17 11:37:19;;;;;;;1.17;1.00;;;15.10;53.00;;;;;;5056358;28;20414;-71
2022/04/17 11:39:45;;;;;;;1.43;1.30;;;14.90;53.30;;;;;;5051517;28;20875;-71
2022/04/17 11:42:11;;;;;;;1.57;1.40;;;15.30;54.30;;;;;;5051607;28;20543;-71
2022/04/17 11:44:40;;;;;;;1.63;1.07;;;15.30;54.00;;;;;;5051771;28;20552;-71
2022/04/17 11:47:06;;;;;;;1.37;1.13;;;15.20;53.50;;;;;;5069404;28;20175;-71
2022/04/17 11:49:32;;;;;;;1.37;1.17;;;15.10;54.60;;;;;;5060168;28;20412;-72
2022/04/17 11:52:18;;;;;;;1.73;1.20;;;15.30;55.50;;;;;;5059338;28;20537;-71
2022/04/17 11:54:45;;;;;;;2.37;1.50;;;15.60;54.40;;;;;;5071345;28;20473;-71
2022/04/17 11:57:12;;;;;;;3.03;1.40;;;15.40;53.90;;;;;;5071329;28;20416;-71
2022/04/17 11:59:48;;;;;;;2.03;1.00;;;15.60;53.30;;;;;;5071423;28;20404;-71
2022/04/17 12:02:16;;;;;;;1.10;0.93;;;15.70;53.20;;;;;;5072254;28;20427;-71
2022/04/17 12:04:50;;;;;;;1.50;1.40;;;15.20;55.60;;;;;;5075193;28;20518;-71
2022/04/17 12:07:26;;;;;;;1.53;1.40;;;15.30;56.80;;;;;;5074249;28;20833;-71
2022/04/17 12:10:13;;;;;;;2.13;1.10;;;15.70;57.20;;;;;;5074996;28;20427;-71
2022/04/17 12:12:43;;;;;;;1.50;1.27;;;15.40;58.00;;;;;;5068813;28;20416;-71
2022/04/17 12:15:15;;;;;;;1.57;1.37;;;15.40;56.90;;;;;;5074951;28;20436;-71
2022/04/17 12:17:40;;;;;;;1.47;1.20;;;15.40;56.80;;;;;;5074552;28;20423;-71
2022/04/17 12:20:14;;;;;;;1.73;1.33;;;15.30;56.60;;;;;;5075089;28;20404;-71
2022/04/17 12:22:41;;;;;;;2.17;1.30;;;15.40;57.00;;;;;;5060258;28;20199;-71
2022/04/17 12:25:17;;;;;;;1.70;1.60;;;15.70;58.40;;;;;;5036828;28;20463;-71
2022/04/17 12:27:45;;;;;;;2.83;1.23;;;15.60;57.10;;;;;;5065624;28;20451;-72
2022/04/17 12:30:11;;;;;;;1.27;1.17;;;15.30;55.80;;;;;;5074962;28;20405;-70
2022/04/17 12:32:46;;;;;;;1.77;1.67;;;15.20;56.20;;;;;;5074765;28;20477;-72
2022/04/17 12:35:20;;;;;;;2.43;1.60;;;15.20;55.70;;;;;;5074786;28;20177;-70
2022/04/17 12:37:45;;;;;;;1.37;1.27;;;15.10;55.40;;;;;;5074970;28;20412;-71
2022/04/17 12:40:19;;;;;;;1.63;1.13;;;15.00;54.60;;;;;;5074605;28;21036;-70
2022/04/17 12:42:44;;;;;;;1.10;1.00;;;14.60;53.60;;;;;;5074454;28;20220;-71
2022/04/17 12:45:21;;;;;;;1.57;1.37;;;15.00;55.50;;;;;;5074458;28;20451;-71
2022/04/17 12:48:08;;;;;;;3.40;2.20;;;15.50;55.40;;;;;;5074534;28;20166;-71
2022/04/17 12:50:34;;;;;;;0.80;0.80;;;15.30;53.20;;;;;;5054586;28;20559;-71
2022/04/17 12:53:01;;;;;;;1.20;1.10;;;15.20;53.00;;;;;;5054174;28;20554;-71
2022/04/17 12:55:32;;;;;;;1.17;1.07;;;15.40;54.20;;;;;;5068550;28;20178;-71
2022/04/17 12:57:58;;;;;;;1.20;0.87;;;15.50;53.20;;;;;;5074074;28;20941;-70
2022/04/17 13:00:26;;;;;;;1.53;1.43;;;15.50;52.30;;;;;;5074644;28;20450;-71
2022/04/17 13:03:13;;;;;;;2.30;1.10;;;15.60;52.70;;;;;;5073933;28;20425;-70
2022/04/17 13:05:40;;;;;;;1.20;1.10;;;15.50;52.40;;;;;;5074271;28;20459;-70
2022/04/17 13:08:07;;;;;;;1.30;0.90;;;15.60;53.80;;;;;;5074465;28;20400;-71
2022/04/17 13:10:33;;;;;;;1.07;0.97;;;15.40;51.10;;;;;;5074311;28;20401;-71